Sebring Express — HP7667 — position and weather

sailwx.info

Track history (hours):
 
Tides and Currents Weather Stations Pressure Air Temp Water Temp Dewpoint Dewpoint Depression Visibility Wind Speed Wind Dir Waves Ship Positions

Sebring Express

Last reported at 2017-Nov-19 19:06 UTC. Time now 2017-Nov-22 22:12 UTC.
Position N 35°30' W 011°33'.

Length 180 m; draft 8.7 m.

Type: Cargo ship. MMSI: 354946000.

Date/timePositionNaut miles runAvg speedWind from/ knotsBaromVisibWave heightAir tempDewpointWater temp
2017-Nov-19 19:06N 35°30' W 011°33'215.1
2017-Nov-19 19:00N 35°32' W 011°33'714.7
2017-Nov-19 18:30N 35°39' W 011°32'1114.9
2017-Nov-19 17:47N 35°50' W 011°30'515.2
2017-Nov-19 17:28N 35°54' W 011°29'715.0
2017-Nov-19 17:00N 36°01' W 011°27'1214.9
2017-Nov-19 16:12N 36°13' W 011°25'415.2
2017-Nov-19 15:56N 36°17' W 011°25'614.9
2017-Nov-19 15:31N 36°23' W 011°23'814.6
2017-Nov-19 14:59N 36°31' W 011°22'714.9
2017-Nov-19 14:30N 36°38' W 011°21'714.9
2017-Nov-19 14:00N 36°45' W 011°19'1315.3
2017-Nov-19 13:09N 36°58' W 011°17'215.3
2017-Nov-19 13:00N 37°01' W 011°16'1015.0
2017-Nov-19 12:22N 37°10' W 011°14'514.9
2017-Nov-19 12:00N 37°15' W 011°13'814.8
2017-Nov-19 11:29N 37°23' W 011°11'714.7
2017-Nov-19 11:00N 37°30' W 011°10'714.6
2017-Nov-19 10:30N 37°37' W 011°09'714.7
2017-Nov-19 10:00N 37°44' W 011°07'815.0
2017-Nov-19 09:30N 37°52' W 011°06'714.9
2017-Nov-19 09:00N 37°59' W 011°04'714.9
2017-Nov-19 08:29N 38°07' W 011°03'714.8
2017-Nov-19 08:00N 38°14' W 011°02'815.2
2017-Nov-19 07:30N 38°21' W 011°00'816.1
2017-Nov-19 07:00N 38°29' W 010°58'1019.1
2017-Nov-19 06:30N 38°39' W 010°57'918.9
2017-Nov-19 06:00N 38°48' W 010°55'917.5
2017-Nov-19 05:30N 38°57' W 010°53'815.3
2017-Nov-19 05:00N 39°04' W 010°52'915.2
2017-Nov-19 04:25N 39°13' W 010°50'614.8
2017-Nov-19 04:00N 39°19' W 010°49'714.4
2017-Nov-19 03:30N 39°26' W 010°48'714.5
2017-Nov-19 03:00N 39°33' W 010°46'714.5
2017-Nov-19 02:30N 39°40' W 010°44'814.3
2017-Nov-19 01:58N 39°48' W 010°43'1414.4
2017-Nov-19 01:01N 40°02' W 010°40'014.8
2017-Nov-19 01:00N 40°02' W 010°40'1314.7
2017-Nov-19 00:05N 40°15' W 010°37'114.8
2017-Nov-19 00:00N 40°16' W 010°37'814.8
2017-Nov-18 23:29N 40°24' W 010°35'714.5
2017-Nov-18 23:00N 40°31' W 010°34'814.6
2017-Nov-18 22:27N 40°39' W 010°32'2514.6
2017-Nov-18 20:45N 41°03' W 010°27'514.8
2017-Nov-18 20:25N 41°08' W 010°26'914.7
2017-Nov-18 19:50N 41°17' W 010°24'514.5
2017-Nov-18 19:30N 41°21' W 010°23'36514.3
2017-Nov-17 17:58N 47°01' W 007°17'2114.7
2017-Nov-17 16:30N 47°20' W 007°02'814.5
2017-Nov-17 15:57N 47°27' W 006°56'614.2
2017-Nov-17 15:30N 47°32' W 006°52'1614.0
2017-Nov-17 14:23N 47°46' W 006°41'713.4
2017-Nov-17 13:53N 47°52' W 006°36'613.4
2017-Nov-17 13:26N 47°58' W 006°32'813.4
2017-Nov-17 12:50N 48°05' W 006°26'513.5
2017-Nov-17 12:29N 48°09' W 006°23'713.7
2017-Nov-17 12:00N 48°15' W 006°18'1214.2
2017-Nov-17 11:11N 48°25' W 006°10'2615.4
2017-Nov-17 09:31N 48°48' W 005°52'0 0.0
2017-Nov-17 09:30N 48°48' W 005°52'815.9
2017-Nov-17 08:59N 48°55' W 005°45'6714.9
2017-Nov-17 04:29N 49°28' W 004°16'1013.3
2017-Nov-17 03:45N 49°33' W 004°03'413.5
2017-Nov-17 03:28N 49°35' W 003°58'613.6
2017-Nov-17 03:00N 49°38' W 003°50'714.0
2017-Nov-17 02:30N 49°42' W 003°41'714.6
2017-Nov-17 02:00N 49°46' W 003°31'815.3
2017-Nov-17 01:30N 49°49' W 003°21'816.1
2017-Nov-17 01:00N 49°54' W 003°10'816.7
2017-Nov-17 00:30N 49°58' W 002°59'816.9
2017-Nov-17 00:00N 50°02' W 002°47'917.0
2017-Nov-16 23:30N 50°04' W 002°35'1716.5
2017-Nov-16 22:30N 50°08' W 002°10'815.4
2017-Nov-16 22:00N 50°10' W 001°58'714.5
2017-Nov-16 21:31N 50°12' W 001°47'713.7
2017-Nov-16 21:00N 50°13' W 001°37'612.9
2017-Nov-16 20:30N 50°15' W 001°27'612.2
2017-Nov-16 20:00N 50°16' W 001°18'611.7
2017-Nov-16 19:31N 50°19' W 001°09'611.2
2017-Nov-16 19:00N 50°21' W 001°01'611.2
2017-Nov-16 18:30N 50°23' W 000°53'611.7
2017-Nov-16 18:01N 50°24' W 000°44'612.3
2017-Nov-16 17:31N 50°25' W 000°35'612.9
2017-Nov-16 17:01N 50°27' W 000°25'713.8
2017-Nov-16 16:31N 50°29' W 000°14'714.5
2017-Nov-16 16:00N 50°31' W 000°03'714.9
2017-Nov-16 15:31N 50°32' E 000°08'815.2
2017-Nov-16 15:00N 50°35' E 000°19'815.3
2017-Nov-16 14:31N 50°36' E 000°31'715.0
2017-Nov-16 14:01N 50°41' E 000°41'714.7
2017-Nov-16 13:30N 50°45' E 000°50'714.1
2017-Nov-16 13:00N 50°49' E 000°59'713.6
2017-Nov-16 12:31N 50°53' E 001°08'712.9
2017-Nov-16 12:00N 50°58' E 001°15'612.1
2017-Nov-16 11:31N 51°02' E 001°22'611.5
2017-Nov-16 11:01N 51°05' E 001°30'611.1
2017-Nov-16 10:31N 51°09' E 001°37'611.7
2017-Nov-16 10:01N 51°12' E 001°44'612.8
2017-Nov-16 09:31N 51°17' E 001°50'713.8
2017-Nov-16 09:00N 51°23' E 001°57'611.7
2017-Nov-16 08:31N 51°23' E 002°06'714.1
2017-Nov-16 08:01N 51°21' E 002°17'815.3
2017-Nov-16 07:31N 51°23' E 002°29'814.9
2017-Nov-16 06:58N 51°23' E 002°41'511.8
2017-Nov-16 06:30N 51°22' E 002°50'917.3
2017-Nov-16 06:00N 51°24' E 003°04'917.6
2017-Nov-16 05:31N 51°25' E 003°18'815.9
2017-Nov-16 05:01N 51°25' E 003°30'510.4
2017-Nov-16 04:30N 51°26' E 003°38'815.2
2017-Nov-16 04:00N 51°21' E 003°47'816.0
2017-Nov-16 03:30N 51°26' E 003°58'612.7
2017-Nov-16 03:01N 51°22' E 004°07'510.1
2017-Nov-16 02:31N 51°21' E 004°15'2 3.2
2017-Nov-16 02:00N 51°21' E 004°17'0 0.0
2017-Nov-16 01:30N 51°21' E 004°17'0 0.5
2017-Nov-16 01:01N 51°21' E 004°17'2 4.2
2017-Nov-16 00:31N 51°19' E 004°19'3 6.3
2017-Nov-16 00:01N 51°16' E 004°22'0 0.1
2017-Nov-15 23:29N 51°16' E 004°22'0 0.0
2017-Nov-15 23:00N 51°16' E 004°22'0 0.0
2017-Nov-15 22:31N 51°16' E 004°22'0 0.0
2017-Nov-15 22:01N 51°16' E 004°22'0 0.0
2017-Nov-15 21:31N 51°16' E 004°22'0 0.0
2017-Nov-15 21:01N 51°16' E 004°22'0 0.0
2017-Nov-15 20:31N 51°16' E 004°22'0 0.0
2017-Nov-15 20:01N 51°16' E 004°22'0 0.0
2017-Nov-15 19:31N 51°16' E 004°22'0 0.0
2017-Nov-15 19:01N 51°16' E 004°22'0 0.0
2017-Nov-15 18:31N 51°16' E 004°22'0 0.0
2017-Nov-15 17:58N 51°16' E 004°22'0 0.0
2017-Nov-15 17:28N 51°16' E 004°22'0 0.0
2017-Nov-15 16:58N 51°16' E 004°22'0 0.0
2017-Nov-15 16:28N 51°16' E 004°22'0 0.0
2017-Nov-15 15:58N 51°16' E 004°22'0 0.0
2017-Nov-15 15:28N 51°16' E 004°22'0 0.0
2017-Nov-15 14:58N 51°16' E 004°22'0 0.0
2017-Nov-15 14:31N 51°16' E 004°22'0 0.0
2017-Nov-15 14:01N 51°16' E 004°22'0 0.0
2017-Nov-15 13:31N 51°16' E 004°22'0 0.0
2017-Nov-15 12:59N 51°16' E 004°22'0 0.0
2017-Nov-15 12:29N 51°16' E 004°22'0 0.0
2017-Nov-15 12:01N 51°16' E 004°22'0 0.0
2017-Nov-15 11:29N 51°16' E 004°22'0 0.0
2017-Nov-15 10:59N 51°16' E 004°22'0 0.0
2017-Nov-15 10:29N 51°16' E 004°22'0 0.0
2017-Nov-15 10:00N 51°16' E 004°22'0 0.0
2017-Nov-15 09:30N 51°16' E 004°22'0 0.0
2017-Nov-15 09:00N 51°16' E 004°22'0 0.0
2017-Nov-15 08:30N 51°16' E 004°22'0 0.0
2017-Nov-15 08:00N 51°16' E 004°22'0 0.0
2017-Nov-15 07:30N 51°16' E 004°22'0 0.0
2017-Nov-15 07:00N 51°16' E 004°22'0 0.0
2017-Nov-15 06:31N 51°16' E 004°22'0 0.0
2017-Nov-15 06:01N 51°16' E 004°22'0 0.0
2017-Nov-15 05:29N 51°16' E 004°22'0 0.0
2017-Nov-15 04:59N 51°16' E 004°22'0 0.0
2017-Nov-15 04:28N 51°16' E 004°22'0 0.0
2017-Nov-15 03:55N 51°16' E 004°22'0 0.0
2017-Nov-15 03:28N 51°16' E 004°22'0 0.0
2017-Nov-15 02:58N 51°16' E 004°22'0 0.0
2017-Nov-15 02:28N 51°16' E 004°22'0 0.0
2017-Nov-15 01:58N 51°16' E 004°22'0 0.0
2017-Nov-15 01:28N 51°16' E 004°22'0 0.0
2017-Nov-15 01:01N 51°16' E 004°22'0 0.0
2017-Nov-15 00:31N 51°16' E 004°22'0 0.0
2017-Nov-15 00:01N 51°16' E 004°22'0 0.0
2017-Nov-14 23:30N 51°16' E 004°22'0 0.0
2017-Nov-14 23:01N 51°16' E 004°22'0 0.0
2017-Nov-14 22:31N 51°16' E 004°22'0 0.0
2017-Nov-14 22:01N 51°16' E 004°22'0 0.0
2017-Nov-14 21:31N 51°16' E 004°22'0 0.0
2017-Nov-14 21:01N 51°16' E 004°22'0 0.0
2017-Nov-14 20:29N 51°16' E 004°22'0 0.0
2017-Nov-14 20:01N 51°16' E 004°22'0 0.0
2017-Nov-14 19:30N 51°16' E 004°22'0 0.0
2017-Nov-14 18:57N 51°16' E 004°22'0 0.0
2017-Nov-14 18:30N 51°16' E 004°22'0 0.0
2017-Nov-14 18:00N 51°16' E 004°22'0 0.0
2017-Nov-14 17:30N 51°16' E 004°22'0 0.0
2017-Nov-14 16:59N 51°16' E 004°22'0 0.0
2017-Nov-14 16:29N 51°16' E 004°22'0 0.0
2017-Nov-14 15:59N 51°16' E 004°22'0 0.0
2017-Nov-14 15:29N 51°16' E 004°22'0 0.0
2017-Nov-14 14:59N 51°16' E 004°22'0 0.0
2017-Nov-14 14:29N 51°16' E 004°22'0 0.0
2017-Nov-14 13:59N 51°16' E 004°22'0 0.0
2017-Nov-14 13:29N 51°16' E 004°22'0 0.0
2017-Nov-14 13:00N 51°16' E 004°22'0 0.0
2017-Nov-14 12:30N 51°16' E 004°22'0 0.0
2017-Nov-14 12:00N 51°16' E 004°22'0 0.0
2017-Nov-14 11:30N 51°16' E 004°22'0 0.0
2017-Nov-14 11:00N 51°16' E 004°22'0 0.0
2017-Nov-14 10:30N 51°16' E 004°22'0 0.0
2017-Nov-14 10:00N 51°16' E 004°22'0 0.0
2017-Nov-14 09:30N 51°16' E 004°22'0 0.0
2017-Nov-14 09:00N 51°16' E 004°22'0 0.0
2017-Nov-14 08:30N 51°16' E 004°22'0 0.1
2017-Nov-14 08:00N 51°16' E 004°22'1 2.4
2017-Nov-14 07:30N 51°17' E 004°20'3 6.1
2017-Nov-14 07:00N 51°20' E 004°18'1 2.4
2017-Nov-14 06:31N 51°21' E 004°17'0 0.0
2017-Nov-14 06:01N 51°21' E 004°17'0 0.0
2017-Nov-14 05:31N 51°21' E 004°17'0 0.2
2017-Nov-14 05:01N 51°21' E 004°17'2 4.6
2017-Nov-14 04:30N 51°22' E 004°14'4 7.1
2017-Nov-14 04:00N 51°22' E 004°08'510.9
2017-Nov-14 03:31N 51°26' E 004°01'713.0
2017-Nov-14 03:01N 51°21' E 003°54'612.8
2017-Nov-14 02:30N 51°23' E 003°43'510.2
2017-Nov-14 02:00N 51°26' E 003°37'3 6.3
2017-Nov-14 01:30N 51°25' E 003°32'510.5
2017-Nov-14 01:00N 51°24' E 003°24'715.0
2017-Nov-14 00:30N 51°24' E 003°12'917.1
2017-Nov-14 00:00N 51°25' E 002°58'714.6
2017-Nov-13 23:31N 51°24' E 002°47'2 3.8
2017-Nov-13 23:01N 51°26' E 002°46'3 5.7
2017-Nov-13 22:30N 51°29' E 002°49'0 0.7
2017-Nov-13 22:00N 51°29' E 002°49'131 6.5
2017-Nov-13 02:00N 50°19' W 000°07'714.6
2017-Nov-13 01:30N 50°17' W 000°18'714.6
2017-Nov-13 01:00N 50°15' W 000°29'714.3
2017-Nov-13 00:30N 50°13' W 000°39'813.7
2017-Nov-12 23:57N 50°11' W 000°51'6311.9
2017-Nov-12 18:39N 49°54' W 002°25'213.3
2017-Nov-12 18:30N 49°53' W 002°28'713.5
2017-Nov-12 17:58N 49°51' W 002°38'613.9
2017-Nov-12 17:30N 49°49' W 002°48'713.4
2017-Nov-12 16:59N 49°46' W 002°58'913.7
2017-Nov-12 16:22N 49°43' W 003°10'513.5
2017-Nov-12 16:00N 49°40' W 003°16'5113.9
2017-Nov-12 12:18N 49°14' W 004°25'514.5
2017-Nov-12 11:58N 49°12' W 004°31'714.5
2017-Nov-12 11:28N 49°08' W 004°41'714.5
2017-Nov-12 11:00N 49°05' W 004°50'714.4
2017-Nov-12 10:30N 49°01' W 004°59'714.3
2017-Nov-12 10:00N 48°57' W 005°09'714.0
2017-Nov-12 09:30N 48°53' W 005°17'714.0
2017-Nov-12 09:00N 48°49' W 005°26'713.9
2017-Nov-12 08:30N 48°45' W 005°35'713.4
2017-Nov-12 07:59N 48°39' W 005°40'714.1
2017-Nov-12 07:30N 48°33' W 005°45'714.1
2017-Nov-12 07:00N 48°27' W 005°49'814.0
2017-Nov-12 06:25N 48°20' W 005°55'614.4
2017-Nov-12 06:00N 48°14' W 005°59'8614.0
2017-Nov-11 23:52N 47°02' W 007°08'814.5
2017-Nov-11 23:20N 46°56' W 007°15'49313.6
2017-Nov-10 11:01N 39°11' W 010°60'312.7
2017-Nov-10 10:48N 39°08' W 011°00'613.1
2017-Nov-10 10:20N 39°02' W 011°01'413.0
2017-Nov-10 10:00N 38°58' W 011°02'612.9
2017-Nov-10 09:30N 38°52' W 011°03'3113.3
2017-Nov-10 07:09N 38°21' W 011°08'1513.3
2017-Nov-10 05:59N 38°05' W 011°10'  
Track history (hours):
 
Tides and Currents Weather Stations Pressure Air Temp Water Temp Dewpoint Dewpoint Depression Visibility Wind Speed Wind Dir Waves Ship Positions

Sebring Express

Last reported at 2017-Nov-19 19:06 UTC. Time now 2017-Nov-22 22:12 UTC.
Position N 35°30' W 011°33'.

Length 180 m; draft 8.7 m.

Type: Cargo ship. MMSI: 354946000.

Date/timePositionNaut miles runAvg speedWind from/ knotsBaromVisibWave heightAir tempDewpointWater temp
2017-Nov-19 19:06N 35°30' W 011°33'215.1
2017-Nov-19 19:00N 35°32' W 011°33'714.7
2017-Nov-19 18:30N 35°39' W 011°32'1114.9
2017-Nov-19 17:47N 35°50' W 011°30'515.2
2017-Nov-19 17:28N 35°54' W 011°29'715.0
2017-Nov-19 17:00N 36°01' W 011°27'1214.9
2017-Nov-19 16:12N 36°13' W 011°25'415.2
2017-Nov-19 15:56N 36°17' W 011°25'614.9
2017-Nov-19 15:31N 36°23' W 011°23'814.6
2017-Nov-19 14:59N 36°31' W 011°22'714.9
2017-Nov-19 14:30N 36°38' W 011°21'714.9
2017-Nov-19 14:00N 36°45' W 011°19'1315.3
2017-Nov-19 13:09N 36°58' W 011°17'215.3
2017-Nov-19 13:00N 37°01' W 011°16'1015.0
2017-Nov-19 12:22N 37°10' W 011°14'514.9
2017-Nov-19 12:00N 37°15' W 011°13'814.8
2017-Nov-19 11:29N 37°23' W 011°11'714.7
2017-Nov-19 11:00N 37°30' W 011°10'714.6
2017-Nov-19 10:30N 37°37' W 011°09'714.7
2017-Nov-19 10:00N 37°44' W 011°07'815.0
2017-Nov-19 09:30N 37°52' W 011°06'714.9
2017-Nov-19 09:00N 37°59' W 011°04'714.9
2017-Nov-19 08:29N 38°07' W 011°03'714.8
2017-Nov-19 08:00N 38°14' W 011°02'815.2
2017-Nov-19 07:30N 38°21' W 011°00'816.1
2017-Nov-19 07:00N 38°29' W 010°58'1019.1
2017-Nov-19 06:30N 38°39' W 010°57'918.9
2017-Nov-19 06:00N 38°48' W 010°55'917.5
2017-Nov-19 05:30N 38°57' W 010°53'815.3
2017-Nov-19 05:00N 39°04' W 010°52'915.2
2017-Nov-19 04:25N 39°13' W 010°50'614.8
2017-Nov-19 04:00N 39°19' W 010°49'714.4
2017-Nov-19 03:30N 39°26' W 010°48'714.5
2017-Nov-19 03:00N 39°33' W 010°46'714.5
2017-Nov-19 02:30N 39°40' W 010°44'814.3
2017-Nov-19 01:58N 39°48' W 010°43'1414.4
2017-Nov-19 01:01N 40°02' W 010°40'014.8
2017-Nov-19 01:00N 40°02' W 010°40'1314.7
2017-Nov-19 00:05N 40°15' W 010°37'114.8
2017-Nov-19 00:00N 40°16' W 010°37'814.8
2017-Nov-18 23:29N 40°24' W 010°35'714.5
2017-Nov-18 23:00N 40°31' W 010°34'814.6
2017-Nov-18 22:27N 40°39' W 010°32'2514.6
2017-Nov-18 20:45N 41°03' W 010°27'514.8
2017-Nov-18 20:25N 41°08' W 010°26'914.7
2017-Nov-18 19:50N 41°17' W 010°24'514.5
2017-Nov-18 19:30N 41°21' W 010°23'36514.3
2017-Nov-17 17:58N 47°01' W 007°17'2114.7
2017-Nov-17 16:30N 47°20' W 007°02'814.5
2017-Nov-17 15:57N 47°27' W 006°56'614.2
2017-Nov-17 15:30N 47°32' W 006°52'1614.0
2017-Nov-17 14:23N 47°46' W 006°41'713.4
2017-Nov-17 13:53N 47°52' W 006°36'613.4
2017-Nov-17 13:26N 47°58' W 006°32'813.4
2017-Nov-17 12:50N 48°05' W 006°26'513.5
2017-Nov-17 12:29N 48°09' W 006°23'713.7
2017-Nov-17 12:00N 48°15' W 006°18'1214.2
2017-Nov-17 11:11N 48°25' W 006°10'2615.4
2017-Nov-17 09:31N 48°48' W 005°52'0 0.0
2017-Nov-17 09:30N 48°48' W 005°52'815.9
2017-Nov-17 08:59N 48°55' W 005°45'6714.9
2017-Nov-17 04:29N 49°28' W 004°16'1013.3
2017-Nov-17 03:45N 49°33' W 004°03'413.5
2017-Nov-17 03:28N 49°35' W 003°58'613.6
2017-Nov-17 03:00N 49°38' W 003°50'714.0
2017-Nov-17 02:30N 49°42' W 003°41'714.6
2017-Nov-17 02:00N 49°46' W 003°31'815.3
2017-Nov-17 01:30N 49°49' W 003°21'816.1
2017-Nov-17 01:00N 49°54' W 003°10'816.7
2017-Nov-17 00:30N 49°58' W 002°59'816.9
2017-Nov-17 00:00N 50°02' W 002°47'917.0
2017-Nov-16 23:30N 50°04' W 002°35'1716.5
2017-Nov-16 22:30N 50°08' W 002°10'815.4
2017-Nov-16 22:00N 50°10' W 001°58'714.5
2017-Nov-16 21:31N 50°12' W 001°47'713.7
2017-Nov-16 21:00N 50°13' W 001°37'612.9
2017-Nov-16 20:30N 50°15' W 001°27'612.2
2017-Nov-16 20:00N 50°16' W 001°18'611.7
2017-Nov-16 19:31N 50°19' W 001°09'611.2
2017-Nov-16 19:00N 50°21' W 001°01'611.2
2017-Nov-16 18:30N 50°23' W 000°53'611.7
2017-Nov-16 18:01N 50°24' W 000°44'612.3
2017-Nov-16 17:31N 50°25' W 000°35'612.9
2017-Nov-16 17:01N 50°27' W 000°25'713.8
2017-Nov-16 16:31N 50°29' W 000°14'714.5
2017-Nov-16 16:00N 50°31' W 000°03'714.9
2017-Nov-16 15:31N 50°32' E 000°08'815.2
2017-Nov-16 15:00N 50°35' E 000°19'815.3
2017-Nov-16 14:31N 50°36' E 000°31'715.0
2017-Nov-16 14:01N 50°41' E 000°41'714.7
2017-Nov-16 13:30N 50°45' E 000°50'714.1
2017-Nov-16 13:00N 50°49' E 000°59'713.6
2017-Nov-16 12:31N 50°53' E 001°08'712.9
2017-Nov-16 12:00N 50°58' E 001°15'612.1
2017-Nov-16 11:31N 51°02' E 001°22'611.5
2017-Nov-16 11:01N 51°05' E 001°30'611.1
2017-Nov-16 10:31N 51°09' E 001°37'611.7
2017-Nov-16 10:01N 51°12' E 001°44'612.8
2017-Nov-16 09:31N 51°17' E 001°50'713.8
2017-Nov-16 09:00N 51°23' E 001°57'611.7
2017-Nov-16 08:31N 51°23' E 002°06'714.1
2017-Nov-16 08:01N 51°21' E 002°17'815.3
2017-Nov-16 07:31N 51°23' E 002°29'814.9
2017-Nov-16 06:58N 51°23' E 002°41'511.8
2017-Nov-16 06:30N 51°22' E 002°50'917.3
2017-Nov-16 06:00N 51°24' E 003°04'917.6
2017-Nov-16 05:31N 51°25' E 003°18'815.9
2017-Nov-16 05:01N 51°25' E 003°30'510.4
2017-Nov-16 04:30N 51°26' E 003°38'815.2
2017-Nov-16 04:00N 51°21' E 003°47'816.0
2017-Nov-16 03:30N 51°26' E 003°58'612.7
2017-Nov-16 03:01N 51°22' E 004°07'510.1
2017-Nov-16 02:31N 51°21' E 004°15'2 3.2
2017-Nov-16 02:00N 51°21' E 004°17'0 0.0
2017-Nov-16 01:30N 51°21' E 004°17'0 0.5
2017-Nov-16 01:01N 51°21' E 004°17'2 4.2
2017-Nov-16 00:31N 51°19' E 004°19'3 6.3
2017-Nov-16 00:01N 51°16' E 004°22'0 0.1
2017-Nov-15 23:29N 51°16' E 004°22'0 0.0
2017-Nov-15 23:00N 51°16' E 004°22'0 0.0
2017-Nov-15 22:31N 51°16' E 004°22'0 0.0
2017-Nov-15 22:01N 51°16' E 004°22'0 0.0
2017-Nov-15 21:31N 51°16' E 004°22'0 0.0
2017-Nov-15 21:01N 51°16' E 004°22'0 0.0
2017-Nov-15 20:31N 51°16' E 004°22'0 0.0
2017-Nov-15 20:01N 51°16' E 004°22'0 0.0
2017-Nov-15 19:31N 51°16' E 004°22'0 0.0
2017-Nov-15 19:01N 51°16' E 004°22'0 0.0
2017-Nov-15 18:31N 51°16' E 004°22'0 0.0
2017-Nov-15 17:58N 51°16' E 004°22'0 0.0
2017-Nov-15 17:28N 51°16' E 004°22'0 0.0
2017-Nov-15 16:58N 51°16' E 004°22'0 0.0
2017-Nov-15 16:28N 51°16' E 004°22'0 0.0
2017-Nov-15 15:58N 51°16' E 004°22'0 0.0
2017-Nov-15 15:28N 51°16' E 004°22'0 0.0
2017-Nov-15 14:58N 51°16' E 004°22'0 0.0
2017-Nov-15 14:31N 51°16' E 004°22'0 0.0
2017-Nov-15 14:01N 51°16' E 004°22'0 0.0
2017-Nov-15 13:31N 51°16' E 004°22'0 0.0
2017-Nov-15 12:59N 51°16' E 004°22'0 0.0
2017-Nov-15 12:29N 51°16' E 004°22'0 0.0
2017-Nov-15 12:01N 51°16' E 004°22'0 0.0
2017-Nov-15 11:29N 51°16' E 004°22'0 0.0
2017-Nov-15 10:59N 51°16' E 004°22'0 0.0
2017-Nov-15 10:29N 51°16' E 004°22'0 0.0
2017-Nov-15 10:00N 51°16' E 004°22'0 0.0
2017-Nov-15 09:30N 51°16' E 004°22'0 0.0
2017-Nov-15 09:00N 51°16' E 004°22'0 0.0
2017-Nov-15 08:30N 51°16' E 004°22'0 0.0
2017-Nov-15 08:00N 51°16' E 004°22'0 0.0
2017-Nov-15 07:30N 51°16' E 004°22'0 0.0
2017-Nov-15 07:00N 51°16' E 004°22'0 0.0
2017-Nov-15 06:31N 51°16' E 004°22'0 0.0
2017-Nov-15 06:01N 51°16' E 004°22'0 0.0
2017-Nov-15 05:29N 51°16' E 004°22'0 0.0
2017-Nov-15 04:59N 51°16' E 004°22'0 0.0
2017-Nov-15 04:28N 51°16' E 004°22'0 0.0
2017-Nov-15 03:55N 51°16' E 004°22'0 0.0
2017-Nov-15 03:28N 51°16' E 004°22'0 0.0
2017-Nov-15 02:58N 51°16' E 004°22'0 0.0
2017-Nov-15 02:28N 51°16' E 004°22'0 0.0
2017-Nov-15 01:58N 51°16' E 004°22'0 0.0
2017-Nov-15 01:28N 51°16' E 004°22'0 0.0
2017-Nov-15 01:01N 51°16' E 004°22'0 0.0
2017-Nov-15 00:31N 51°16' E 004°22'0 0.0
2017-Nov-15 00:01N 51°16' E 004°22'0 0.0
2017-Nov-14 23:30N 51°16' E 004°22'0 0.0
2017-Nov-14 23:01N 51°16' E 004°22'0 0.0
2017-Nov-14 22:31N 51°16' E 004°22'0 0.0
2017-Nov-14 22:01N 51°16' E 004°22'0 0.0
2017-Nov-14 21:31N 51°16' E 004°22'0 0.0
2017-Nov-14 21:01N 51°16' E 004°22'0 0.0
2017-Nov-14 20:29N 51°16' E 004°22'0 0.0
2017-Nov-14 20:01N 51°16' E 004°22'0 0.0
2017-Nov-14 19:30N 51°16' E 004°22'0 0.0
2017-Nov-14 18:57N 51°16' E 004°22'0 0.0
2017-Nov-14 18:30N 51°16' E 004°22'0 0.0
2017-Nov-14 18:00N 51°16' E 004°22'0 0.0
2017-Nov-14 17:30N 51°16' E 004°22'0 0.0
2017-Nov-14 16:59N 51°16' E 004°22'0 0.0
2017-Nov-14 16:29N 51°16' E 004°22'0 0.0
2017-Nov-14 15:59N 51°16' E 004°22'0 0.0
2017-Nov-14 15:29N 51°16' E 004°22'0 0.0
2017-Nov-14 14:59N 51°16' E 004°22'0 0.0
2017-Nov-14 14:29N 51°16' E 004°22'0 0.0
2017-Nov-14 13:59N 51°16' E 004°22'0 0.0
2017-Nov-14 13:29N 51°16' E 004°22'0 0.0
2017-Nov-14 13:00N 51°16' E 004°22'0 0.0
2017-Nov-14 12:30N 51°16' E 004°22'0 0.0
2017-Nov-14 12:00N 51°16' E 004°22'0 0.0
2017-Nov-14 11:30N 51°16' E 004°22'0 0.0
2017-Nov-14 11:00N 51°16' E 004°22'0 0.0
2017-Nov-14 10:30N 51°16' E 004°22'0 0.0
2017-Nov-14 10:00N 51°16' E 004°22'0 0.0
2017-Nov-14 09:30N 51°16' E 004°22'0 0.0
2017-Nov-14 09:00N 51°16' E 004°22'0 0.0
2017-Nov-14 08:30N 51°16' E 004°22'0 0.1
2017-Nov-14 08:00N 51°16' E 004°22'1 2.4
2017-Nov-14 07:30N 51°17' E 004°20'3 6.1
2017-Nov-14 07:00N 51°20' E 004°18'1 2.4
2017-Nov-14 06:31N 51°21' E 004°17'0 0.0
2017-Nov-14 06:01N 51°21' E 004°17'0 0.0
2017-Nov-14 05:31N 51°21' E 004°17'0 0.2
2017-Nov-14 05:01N 51°21' E 004°17'2 4.6
2017-Nov-14 04:30N 51°22' E 004°14'4 7.1
2017-Nov-14 04:00N 51°22' E 004°08'510.9
2017-Nov-14 03:31N 51°26' E 004°01'713.0
2017-Nov-14 03:01N 51°21' E 003°54'612.8
2017-Nov-14 02:30N 51°23' E 003°43'510.2
2017-Nov-14 02:00N 51°26' E 003°37'3 6.3
2017-Nov-14 01:30N 51°25' E 003°32'510.5
2017-Nov-14 01:00N 51°24' E 003°24'715.0
2017-Nov-14 00:30N 51°24' E 003°12'917.1
2017-Nov-14 00:00N 51°25' E 002°58'714.6
2017-Nov-13 23:31N 51°24' E 002°47'2 3.8
2017-Nov-13 23:01N 51°26' E 002°46'3 5.7
2017-Nov-13 22:30N 51°29' E 002°49'0 0.7
2017-Nov-13 22:00N 51°29' E 002°49'131 6.5
2017-Nov-13 02:00N 50°19' W 000°07'714.6
2017-Nov-13 01:30N 50°17' W 000°18'714.6
2017-Nov-13 01:00N 50°15' W 000°29'714.3
2017-Nov-13 00:30N 50°13' W 000°39'813.7
2017-Nov-12 23:57N 50°11' W 000°51'6311.9
2017-Nov-12 18:39N 49°54' W 002°25'213.3
2017-Nov-12 18:30N 49°53' W 002°28'713.5
2017-Nov-12 17:58N 49°51' W 002°38'613.9
2017-Nov-12 17:30N 49°49' W 002°48'713.4
2017-Nov-12 16:59N 49°46' W 002°58'913.7
2017-Nov-12 16:22N 49°43' W 003°10'513.5
2017-Nov-12 16:00N 49°40' W 003°16'5113.9
2017-Nov-12 12:18N 49°14' W 004°25'514.5
2017-Nov-12 11:58N 49°12' W 004°31'714.5
2017-Nov-12 11:28N 49°08' W 004°41'714.5
2017-Nov-12 11:00N 49°05' W 004°50'714.4
2017-Nov-12 10:30N 49°01' W 004°59'714.3
2017-Nov-12 10:00N 48°57' W 005°09'714.0
2017-Nov-12 09:30N 48°53' W 005°17'714.0
2017-Nov-12 09:00N 48°49' W 005°26'713.9
2017-Nov-12 08:30N 48°45' W 005°35'713.4
2017-Nov-12 07:59N 48°39' W 005°40'714.1
2017-Nov-12 07:30N 48°33' W 005°45'714.1
2017-Nov-12 07:00N 48°27' W 005°49'814.0
2017-Nov-12 06:25N 48°20' W 005°55'614.4
2017-Nov-12 06:00N 48°14' W 005°59'8614.0
2017-Nov-11 23:52N 47°02' W 007°08'814.5
2017-Nov-11 23:20N 46°56' W 007°15'49313.6
2017-Nov-10 11:01N 39°11' W 010°60'312.7
2017-Nov-10 10:48N 39°08' W 011°00'613.1
2017-Nov-10 10:20N 39°02' W 011°01'413.0
2017-Nov-10 10:00N 38°58' W 011°02'612.9
2017-Nov-10 09:30N 38°52' W 011°03'3113.3
2017-Nov-10 07:09N 38°21' W 011°08'1513.3
2017-Nov-10 05:59N 38°05' W 011°10'  

Dump ship's entire track history